Copeland, Alabama
Current Conditions -  °F | °C
As of 2:58 PM on Friday 19 Dec 2014 (Local Time) from KMEI Reporting Station
Light Rain Light Rain  
Wind Chill: 42°   Ceiling: 3300
Heat Index: 46°   Visibility: 7mi
Dew Point: 42°   Wind: 7mph
Humidity: 86%   Direction: 10°N
Pressure: 30.14"   Gusts: NA
Location:  31.6272°N, 88.354°W
Report Text: KMEI 192058Z 01006KT 7SM -RA BKN033 BKN050 OVC070 08/06 A3014 RMK AO2 SLP208 P0005 60006 T00780056 55011
Loading
Personal Weather Stations






























Interactive Weather Map New forecast layout! Learn more

10-Day Weather Forecast

Advertisements
Track Severe Weather on mobile